createdAt,value
2023-05-07T00:02:19.488Z,13.30
2023-05-07T00:04:46.822Z,13.30
2023-05-07T00:07:13.865Z,13.40
2023-05-07T00:09:40.959Z,13.40
2023-05-07T00:12:09.099Z,13.40
2023-05-07T00:14:36.092Z,13.40
2023-05-07T00:17:03.029Z,13.50
2023-05-07T00:19:29.969Z,13.40
2023-05-07T00:21:57.390Z,13.40
2023-05-07T00:24:24.435Z,13.40
2023-05-07T00:26:52.016Z,13.40
2023-05-07T00:29:19.169Z,13.40
2023-05-07T00:31:46.180Z,13.40
2023-05-07T00:34:13.265Z,13.40
2023-05-07T00:36:40.217Z,13.30
2023-05-07T00:39:07.883Z,13.30
2023-05-07T00:41:34.979Z,13.20
2023-05-07T00:44:03.274Z,13.20
2023-05-07T00:46:31.750Z,13.20
2023-05-07T00:48:59.240Z,13.10
2023-05-07T00:51:30.318Z,13.10
2023-05-07T00:53:57.610Z,13.10
2023-05-07T00:56:25.895Z,13.10
2023-05-07T00:58:53.070Z,13.10
2023-05-07T01:01:20.166Z,13.10
2023-05-07T01:03:47.301Z,13.10
2023-05-07T01:06:17.766Z,13.10
2023-05-07T01:08:46.333Z,13.10
2023-05-07T01:11:13.973Z,13.10
2023-05-07T01:13:42.567Z,13.10
2023-05-07T01:16:10.931Z,13.10
2023-05-07T01:18:37.954Z,13.10
2023-05-07T01:21:09.011Z,13.10
2023-05-07T01:23:36.655Z,13.10
2023-05-07T01:26:03.703Z,13.20
2023-05-07T01:28:32.889Z,13.10
2023-05-07T01:31:05.368Z,13.10
2023-05-07T01:33:37.130Z,13.20
2023-05-07T01:36:07.533Z,13.20
2023-05-07T01:38:35.414Z,13.10
2023-05-07T01:41:03.698Z,13.20
2023-05-07T01:43:32.170Z,13.20
2023-05-07T01:45:59.979Z,13.20
2023-05-07T01:48:27.711Z,13.20
2023-05-07T01:50:55.001Z,13.20
2023-05-07T01:53:22.089Z,13.20
2023-05-07T01:55:49.175Z,13.20
2023-05-07T01:58:17.204Z,13.20
2023-05-07T02:00:44.640Z,13.20
2023-05-07T02:03:11.847Z,13.20
2023-05-07T02:05:49.869Z,13.20
2023-05-07T02:08:24.973Z,13.20
2023-05-07T02:10:52.452Z,13.20
2023-05-07T02:13:20.797Z,13.20
2023-05-07T02:15:51.493Z,13.20
2023-05-07T02:18:18.841Z,13.20
2023-05-07T02:20:45.966Z,13.10
2023-05-07T02:23:13.043Z,13.20
2023-05-07T02:25:39.985Z,13.20
2023-05-07T02:28:06.892Z,13.30
2023-05-07T02:30:59.425Z,13.20
2023-05-07T02:33:26.717Z,13.20
2023-05-07T02:35:53.938Z,13.20
2023-05-07T02:38:20.870Z,13.40
2023-05-07T02:40:47.896Z,13.30
2023-05-07T02:43:14.952Z,13.30
2023-05-07T02:45:45.213Z,13.30
2023-05-07T02:48:13.213Z,13.20
2023-05-07T02:50:40.595Z,13.30
2023-05-07T02:53:07.714Z,13.30
2023-05-07T02:55:34.841Z,13.30
2023-05-07T02:58:01.870Z,13.40
2023-05-07T03:00:31.030Z,13.20
2023-05-07T03:03:09.472Z,13.30
2023-05-07T03:05:36.420Z,13.30
2023-05-07T03:08:04.820Z,13.30
2023-05-07T03:10:31.926Z,13.30
2023-05-07T03:12:59.038Z,13.30
2023-05-07T03:15:25.965Z,13.30
2023-05-07T03:17:53.680Z,13.30
2023-05-07T03:20:20.690Z,13.30
2023-05-07T03:22:47.803Z,13.30
2023-05-07T03:25:15.724Z,13.30
2023-05-07T03:27:45.290Z,13.30
2023-05-07T03:30:13.381Z,13.20
2023-05-07T03:32:41.064Z,13.30
2023-05-07T03:35:11.301Z,13.30
2023-05-07T03:37:39.614Z,13.20
2023-05-07T03:40:08.823Z,13.20
2023-05-07T03:42:43.184Z,13.20
2023-05-07T03:45:11.704Z,13.40
2023-05-07T03:47:42.732Z,13.20
2023-05-07T03:50:11.986Z,13.20
2023-05-07T03:52:39.116Z,13.20
2023-05-07T03:55:08.440Z,13.20
2023-05-07T03:57:36.955Z,13.20
2023-05-07T04:00:05.567Z,13.10
2023-05-07T04:02:36.806Z,13.10
2023-05-07T04:05:05.994Z,13.10
2023-05-07T04:07:33.094Z,13.20
2023-05-07T04:10:00.303Z,13.20
2023-05-07T04:12:27.433Z,13.20
2023-05-07T04:14:54.787Z,13.20
2023-05-07T04:17:21.881Z,13.20
2023-05-07T04:19:48.848Z,13.20
2023-05-07T04:22:16.764Z,13.20
2023-05-07T04:24:44.019Z,13.20
2023-05-07T04:27:13.175Z,13.20
2023-05-07T04:29:43.133Z,13.20
2023-05-07T04:32:12.893Z,13.20
2023-05-07T04:34:41.351Z,13.20
2023-05-07T04:37:08.875Z,13.30
2023-05-07T04:39:36.451Z,13.30
2023-05-07T04:42:04.195Z,13.30
2023-05-07T04:44:32.124Z,13.20
2023-05-07T04:46:59.018Z,13.40
2023-05-07T04:49:26.594Z,13.40
2023-05-07T04:51:55.349Z,13.40
2023-05-07T04:54:24.409Z,13.40
2023-05-07T04:56:51.626Z,13.50
2023-05-07T04:59:19.047Z,13.50
2023-05-07T05:01:46.035Z,13.60
2023-05-07T05:04:13.956Z,13.60
2023-05-07T05:06:41.741Z,13.70
2023-05-07T05:09:12.261Z,13.70
2023-05-07T05:11:41.832Z,13.80
2023-05-07T05:14:08.926Z,13.80
2023-05-07T05:16:36.885Z,13.90
2023-05-07T05:19:04.206Z,13.90
2023-05-07T05:21:33.643Z,14.00
2023-05-07T05:24:06.369Z,14.10
2023-05-07T05:26:33.535Z,14.10
2023-05-07T05:29:00.471Z,14.10
2023-05-07T05:31:29.778Z,14.20
2023-05-07T05:33:56.798Z,14.20
2023-05-07T05:36:23.802Z,14.20
2023-05-07T05:38:53.187Z,14.30
2023-05-07T05:41:20.210Z,14.30
2023-05-07T05:43:47.060Z,14.30
2023-05-07T05:46:14.339Z,14.40
2023-05-07T05:48:41.489Z,14.50
2023-05-07T05:51:09.206Z,14.50
2023-05-07T05:53:36.296Z,14.60
2023-05-07T05:56:03.743Z,14.60
2023-05-07T05:58:31.834Z,14.70
2023-05-07T06:01:03.638Z,14.80
2023-05-07T06:03:31.243Z,14.80
2023-05-07T06:06:01.221Z,14.80
2023-05-07T06:08:31.237Z,14.90
2023-05-07T06:10:58.585Z,15.20
2023-05-07T06:13:26.790Z,15.10
2023-05-07T06:15:54.368Z,15.10
2023-05-07T06:18:21.281Z,15.10
2023-05-07T06:20:48.515Z,15.30
2023-05-07T06:23:23.859Z,15.30
2023-05-07T06:25:51.561Z,15.50
2023-05-07T06:28:20.984Z,15.40
2023-05-07T06:30:49.809Z,15.50
2023-05-07T06:33:18.196Z,15.50
2023-05-07T06:35:45.156Z,15.50
2023-05-07T06:38:13.301Z,15.60
2023-05-07T06:40:40.713Z,15.60
2023-05-07T06:43:08.131Z,15.80
2023-05-07T06:45:43.012Z,15.80
2023-05-07T06:48:11.032Z,15.80
2023-05-07T06:50:48.165Z,15.80
2023-05-07T06:53:15.946Z,16.10
2023-05-07T06:55:43.551Z,16.00
2023-05-07T06:58:11.782Z,16.10
2023-05-07T07:00:39.454Z,16.20
2023-05-07T07:03:06.549Z,16.30
2023-05-07T07:05:33.839Z,16.40
2023-05-07T07:08:02.838Z,16.50
2023-05-07T07:10:29.783Z,16.50
2023-05-07T07:13:03.878Z,16.60
2023-05-07T07:15:31.371Z,16.70
2023-05-07T07:17:59.193Z,16.80
2023-05-07T07:20:26.285Z,16.90
2023-05-07T07:22:54.220Z,17.00
2023-05-07T07:25:21.920Z,17.10
2023-05-07T07:27:50.454Z,17.20
2023-05-07T07:30:17.806Z,17.40
2023-05-07T07:32:47.817Z,17.70
2023-05-07T07:35:15.772Z,17.70
2023-05-07T07:37:43.355Z,18.00
2023-05-07T07:40:12.823Z,18.10
2023-05-07T07:42:40.169Z,18.40
2023-05-07T07:45:08.628Z,18.60
2023-05-07T07:47:41.331Z,18.90
2023-05-07T07:50:09.710Z,19.10
2023-05-07T07:52:36.859Z,19.30
2023-05-07T07:55:05.478Z,19.60
2023-05-07T07:57:33.285Z,19.90
2023-05-07T08:00:00.644Z,20.00
2023-05-07T08:02:28.523Z,20.20
2023-05-07T08:04:55.821Z,20.50
2023-05-07T08:07:24.020Z,20.70
2023-05-07T08:09:51.347Z,20.90
2023-05-07T08:12:22.340Z,20.90
2023-05-07T08:14:49.555Z,21.40
2023-05-07T08:17:17.318Z,21.40
2023-05-07T08:19:45.410Z,21.40
2023-05-07T08:22:14.997Z,21.80
2023-05-07T08:24:42.058Z,22.10
2023-05-07T08:27:09.752Z,22.60
2023-05-07T08:29:36.777Z,22.80
2023-05-07T08:32:04.088Z,23.00
2023-05-07T08:34:31.063Z,23.10
2023-05-07T08:36:59.770Z,23.40
2023-05-07T08:39:27.268Z,23.50
2023-05-07T08:41:58.118Z,23.80
2023-05-07T08:44:29.187Z,24.20
2023-05-07T08:47:01.085Z,24.50
2023-05-07T08:49:29.697Z,24.80
2023-05-07T08:51:57.749Z,25.40
2023-05-07T08:54:27.096Z,25.50
2023-05-07T08:56:54.756Z,26.00
2023-05-07T08:59:21.702Z,26.20
2023-05-07T09:01:48.852Z,26.50
2023-05-07T09:04:16.692Z,26.70
2023-05-07T09:06:44.437Z,26.90
2023-05-07T09:09:19.593Z,26.80
2023-05-07T09:11:46.970Z,27.20
2023-05-07T09:14:16.058Z,27.00
2023-05-07T09:16:47.501Z,26.90
2023-05-07T09:19:14.591Z,26.60
2023-05-07T09:21:45.605Z,26.60
2023-05-07T09:24:16.644Z,26.40
2023-05-07T09:26:44.211Z,26.50
2023-05-07T09:29:11.964Z,26.60
2023-05-07T09:31:39.958Z,26.40
2023-05-07T09:34:09.203Z,26.50
2023-05-07T09:36:38.599Z,26.50
2023-05-07T09:39:05.670Z,26.50
2023-05-07T09:41:33.857Z,26.70
2023-05-07T09:44:16.234Z,26.50
2023-05-07T09:46:54.788Z,26.50
2023-05-07T09:49:31.337Z,26.40
2023-05-07T09:52:07.051Z,26.20
2023-05-07T09:54:38.893Z,26.20
2023-05-07T09:57:07.899Z,26.10
2023-05-07T09:59:38.212Z,25.90
2023-05-07T10:02:11.640Z,25.90
2023-05-07T10:04:47.800Z,26.00
2023-05-07T10:07:17.874Z,26.10
2023-05-07T10:09:49.187Z,26.00
2023-05-07T10:12:26.187Z,26.10
2023-05-07T10:14:54.288Z,26.20
2023-05-07T10:17:24.472Z,26.20
2023-05-07T10:19:54.400Z,26.50
2023-05-07T10:22:23.364Z,26.60
2023-05-07T10:24:53.928Z,26.80
2023-05-07T10:27:22.412Z,26.90
2023-05-07T10:30:12.559Z,27.10
2023-05-07T10:32:43.868Z,27.20
2023-05-07T10:35:23.653Z,27.10
2023-05-07T10:37:51.825Z,27.00
2023-05-07T10:40:22.522Z,27.00
2023-05-07T10:43:06.970Z,27.20
2023-05-07T10:45:42.444Z,27.30
2023-05-07T10:50:50.106Z,27.50
2023-05-07T10:53:19.982Z,27.90
2023-05-07T10:56:22.414Z,28.20
2023-05-07T10:58:55.948Z,28.60
2023-05-07T11:01:59.569Z,28.80
2023-05-07T11:04:35.857Z,29.00
2023-05-07T11:07:16.895Z,29.00
2023-05-07T11:09:53.318Z,28.90
2023-05-07T11:12:39.746Z,28.70
2023-05-07T11:15:16.875Z,28.50
2023-05-07T11:17:56.296Z,28.40
2023-05-07T11:20:55.572Z,28.10
2023-05-07T11:23:36.334Z,28.00
2023-05-07T11:26:12.464Z,28.10
2023-05-07T11:28:43.525Z,28.10
2023-05-07T11:31:12.068Z,28.20
2023-05-07T11:33:40.428Z,28.40
2023-05-07T11:36:11.328Z,28.50
2023-05-07T11:38:44.429Z,28.60
2023-05-07T11:41:11.580Z,28.80
2023-05-07T11:43:40.834Z,28.90
2023-05-07T11:46:13.335Z,28.90
2023-05-07T11:48:40.790Z,28.90
2023-05-07T11:51:14.116Z,28.90
2023-05-07T11:53:43.894Z,28.80
2023-05-07T11:56:19.040Z,28.80
2023-05-07T11:58:48.220Z,28.80
2023-05-07T12:01:17.361Z,28.90
2023-05-07T12:03:47.358Z,29.30
2023-05-07T12:06:17.126Z,29.70
2023-05-07T12:08:47.951Z,30.40
2023-05-07T12:11:24.673Z,31.00
2023-05-07T12:13:52.458Z,31.70
2023-05-07T12:16:20.535Z,32.30
2023-05-07T12:18:48.039Z,32.60
2023-05-07T12:21:15.910Z,33.00
2023-05-07T12:23:42.846Z,33.10
2023-05-07T12:26:09.858Z,33.10
2023-05-07T12:28:40.500Z,33.00
2023-05-07T12:31:08.516Z,33.20
2023-05-07T12:33:36.748Z,33.20
2023-05-07T12:36:09.024Z,33.10
2023-05-07T12:38:38.598Z,33.10
2023-05-07T12:41:08.274Z,33.10
2023-05-07T12:43:35.534Z,33.10
2023-05-07T12:46:07.903Z,32.90
2023-05-07T12:48:39.554Z,32.70
2023-05-07T12:51:08.474Z,32.40
2023-05-07T12:53:43.476Z,32.10
2023-05-07T12:56:10.677Z,31.80
2023-05-07T12:58:37.706Z,31.50
2023-05-07T13:01:11.146Z,31.30
2023-05-07T13:03:39.566Z,31.20
2023-05-07T13:06:16.170Z,31.10
2023-05-07T13:08:46.395Z,31.20
2023-05-07T13:11:14.741Z,31.40
2023-05-07T13:13:42.371Z,31.40
2023-05-07T13:16:12.470Z,31.50
2023-05-07T13:18:41.504Z,31.40
2023-05-07T13:21:08.812Z,31.60
2023-05-07T13:23:35.996Z,31.90
2023-05-07T13:26:08.513Z,32.30
2023-05-07T13:28:38.686Z,32.60
2023-05-07T13:31:05.806Z,32.70
2023-05-07T13:33:32.751Z,32.60
2023-05-07T13:36:01.498Z,32.50
2023-05-07T13:38:28.646Z,32.60
2023-05-07T13:40:55.600Z,32.70
2023-05-07T13:43:22.533Z,33.00
2023-05-07T13:45:49.583Z,33.30
2023-05-07T13:48:16.672Z,33.40
2023-05-07T13:50:43.793Z,33.50
2023-05-07T13:53:10.740Z,33.50
2023-05-07T13:55:37.679Z,33.30
2023-05-07T13:58:06.995Z,33.10
2023-05-07T14:00:34.258Z,32.90
2023-05-07T14:03:01.180Z,32.70
2023-05-07T14:05:29.387Z,32.60
2023-05-07T14:07:58.842Z,32.50
2023-05-07T14:10:26.765Z,32.40
2023-05-07T14:12:53.967Z,32.30
2023-05-07T14:15:21.476Z,32.10
2023-05-07T14:17:48.561Z,31.90
2023-05-07T14:20:15.708Z,31.60
2023-05-07T14:22:42.861Z,31.40
2023-05-07T14:25:13.910Z,31.30
2023-05-07T14:27:41.489Z,30.90
2023-05-07T14:30:09.106Z,30.60
2023-05-07T14:32:36.052Z,30.30
2023-05-07T14:35:03.112Z,29.90
2023-05-07T14:37:30.123Z,29.50
2023-05-07T14:39:57.001Z,29.10
2023-05-07T14:42:24.115Z,28.90
2023-05-07T14:44:51.035Z,28.80
2023-05-07T14:47:19.917Z,28.80
2023-05-07T14:49:47.126Z,28.70
2023-05-07T14:52:14.227Z,28.60
2023-05-07T14:54:41.379Z,28.40
2023-05-07T14:57:11.086Z,28.20
2023-05-07T14:59:39.438Z,28.10
2023-05-07T15:02:09.095Z,27.90
2023-05-07T15:04:39.111Z,27.80
2023-05-07T15:07:06.009Z,27.50
2023-05-07T15:09:33.125Z,27.30
2023-05-07T15:12:00.219Z,27.10
2023-05-07T15:14:27.333Z,27.00
2023-05-07T15:16:54.250Z,26.80
2023-05-07T15:19:22.845Z,26.70
2023-05-07T15:21:49.724Z,26.50
2023-05-07T15:24:16.652Z,26.30
2023-05-07T15:26:43.811Z,26.30
2023-05-07T15:29:11.216Z,26.30
2023-05-07T15:31:39.821Z,26.30
2023-05-07T15:34:07.399Z,26.10
2023-05-07T15:36:34.634Z,26.00
2023-05-07T15:39:03.910Z,25.80
2023-05-07T15:41:31.412Z,25.70
2023-05-07T15:43:58.475Z,25.50
2023-05-07T15:46:26.921Z,25.50
2023-05-07T15:48:54.757Z,25.50
2023-05-07T15:51:22.741Z,25.60
2023-05-07T15:53:51.849Z,25.70
2023-05-07T15:56:18.852Z,25.80
2023-05-07T15:58:46.526Z,25.90
2023-05-07T16:01:13.660Z,25.90
2023-05-07T16:03:41.951Z,25.90
2023-05-07T16:06:12.010Z,26.00
2023-05-07T16:08:40.774Z,26.00
2023-05-07T16:11:07.730Z,25.90
2023-05-07T16:13:37.032Z,25.70
2023-05-07T16:16:04.820Z,25.60
2023-05-07T16:18:31.838Z,25.40
2023-05-07T16:21:00.567Z,25.20
2023-05-07T16:23:27.802Z,25.00
2023-05-07T16:25:54.906Z,24.90
2023-05-07T16:28:24.106Z,24.70
2023-05-07T16:30:52.837Z,24.60
2023-05-07T16:33:20.017Z,24.40
2023-05-07T16:35:52.695Z,24.10
2023-05-07T16:38:20.112Z,24.00
2023-05-07T16:40:47.364Z,23.70
2023-05-07T16:43:14.401Z,23.40
2023-05-07T16:45:41.358Z,23.30
2023-05-07T16:48:08.766Z,23.00
2023-05-07T16:50:36.098Z,22.70
2023-05-07T16:53:03.221Z,22.50
2023-05-07T16:55:36.187Z,22.30
2023-05-07T16:58:09.978Z,22.30
2023-05-07T17:00:49.173Z,21.90
2023-05-07T17:03:19.273Z,21.80
2023-05-07T17:05:46.927Z,21.70
2023-05-07T17:08:14.603Z,21.80
2023-05-07T17:10:42.194Z,21.40
2023-05-07T17:13:09.275Z,21.30
2023-05-07T17:15:36.638Z,21.10
2023-05-07T17:18:03.933Z,21.00
2023-05-07T17:20:34.746Z,20.90
2023-05-07T17:23:01.910Z,20.80
2023-05-07T17:25:28.889Z,20.40
2023-05-07T17:27:56.087Z,20.60
2023-05-07T17:30:23.226Z,20.50
2023-05-07T17:32:50.476Z,20.30
2023-05-07T17:35:17.738Z,20.20
2023-05-07T17:37:52.343Z,20.10
2023-05-07T17:40:22.374Z,20.00
2023-05-07T17:42:52.484Z,19.80
2023-05-07T17:45:22.836Z,19.70
2023-05-07T17:47:49.784Z,19.60
2023-05-07T17:50:16.833Z,19.40
2023-05-07T17:52:43.737Z,19.30
2023-05-07T17:55:10.986Z,19.20
2023-05-07T17:57:38.496Z,19.10
2023-05-07T18:00:10.337Z,19.20
2023-05-07T18:02:37.982Z,18.90
2023-05-07T18:05:05.508Z,18.60
2023-05-07T18:07:32.493Z,18.60
2023-05-07T18:09:59.532Z,18.70
2023-05-07T18:12:27.752Z,18.40
2023-05-07T18:14:54.976Z,18.30
2023-05-07T18:17:24.255Z,18.10
2023-05-07T18:19:54.776Z,18.10
2023-05-07T18:22:22.443Z,18.00
2023-05-07T18:24:51.104Z,17.90
2023-05-07T18:27:18.786Z,17.90
2023-05-07T18:29:45.841Z,17.80
2023-05-07T18:32:14.014Z,17.70
2023-05-07T18:34:41.409Z,17.90
2023-05-07T18:37:08.676Z,17.70
2023-05-07T18:39:36.339Z,17.80
2023-05-07T18:42:05.418Z,17.60
2023-05-07T18:44:33.255Z,17.60
2023-05-07T18:47:00.449Z,17.50
2023-05-07T18:49:27.725Z,17.50
2023-05-07T18:51:55.321Z,17.40
2023-05-07T18:54:22.467Z,17.40
2023-05-07T18:56:49.594Z,17.30
2023-05-07T18:59:16.827Z,17.30
2023-05-07T19:01:44.139Z,17.20
2023-05-07T19:04:12.035Z,17.10
2023-05-07T19:06:38.995Z,17.10
2023-05-07T19:09:05.940Z,17.30
2023-05-07T19:11:33.145Z,17.00
2023-05-07T19:14:02.273Z,16.90
2023-05-07T19:16:31.861Z,16.80
2023-05-07T19:18:59.250Z,16.80
2023-05-07T19:21:27.998Z,16.80
2023-05-07T19:23:57.357Z,16.70
2023-05-07T19:26:24.878Z,16.70
2023-05-07T19:29:01.689Z,16.60
2023-05-07T19:31:38.902Z,16.60
2023-05-07T19:34:06.116Z,16.50
2023-05-07T19:36:34.388Z,16.50
2023-05-07T19:39:01.480Z,16.40
2023-05-07T19:41:29.054Z,16.30
2023-05-07T19:43:56.261Z,16.10
2023-05-07T19:46:23.445Z,16.10
2023-05-07T19:48:50.940Z,16.00
2023-05-07T19:51:18.015Z,15.90
2023-05-07T19:53:45.179Z,15.90
2023-05-07T19:56:12.629Z,15.80
2023-05-07T19:58:39.843Z,15.70
2023-05-07T20:01:07.055Z,15.60
2023-05-07T20:03:35.318Z,15.50
2023-05-07T20:06:03.063Z,15.50
2023-05-07T20:08:30.859Z,15.40
2023-05-07T20:10:59.919Z,15.30
2023-05-07T20:13:27.572Z,15.20
2023-05-07T20:16:02.683Z,15.10
2023-05-07T20:18:29.799Z,15.10
2023-05-07T20:20:58.465Z,15.00
2023-05-07T20:23:26.140Z,14.90
2023-05-07T20:25:53.117Z,15.00
2023-05-07T20:28:20.406Z,14.80
2023-05-07T20:30:47.408Z,14.70
2023-05-07T20:33:14.666Z,14.70
2023-05-07T20:35:41.627Z,14.60
2023-05-07T20:38:08.631Z,14.60
2023-05-07T20:40:37.879Z,14.50
2023-05-07T20:43:08.198Z,14.50
2023-05-07T20:45:35.345Z,14.40
2023-05-07T20:48:02.551Z,14.40
2023-05-07T20:50:29.831Z,14.40
2023-05-07T20:52:56.847Z,14.30
2023-05-07T20:55:23.829Z,14.30
2023-05-07T20:57:50.916Z,14.20
2023-05-07T21:00:18.601Z,14.10
2023-05-07T21:02:46.003Z,14.10
2023-05-07T21:05:13.757Z,14.10
2023-05-07T21:07:40.942Z,14.00
2023-05-07T21:10:08.673Z,14.00
2023-05-07T21:12:36.131Z,13.90
2023-05-07T21:15:03.771Z,13.90
2023-05-07T21:17:33.114Z,13.80
2023-05-07T21:20:00.024Z,13.80
2023-05-07T21:22:27.246Z,13.70
2023-05-07T21:24:54.298Z,13.70
2023-05-07T21:27:21.253Z,13.60
2023-05-07T21:29:48.388Z,13.50
2023-05-07T21:32:15.567Z,13.60
2023-05-07T21:34:42.751Z,13.60
2023-05-07T21:37:09.643Z,13.40
2023-05-07T21:39:36.812Z,13.30
2023-05-07T21:42:04.059Z,13.30
2023-05-07T21:44:31.653Z,13.20
2023-05-07T21:46:58.780Z,13.20
2023-05-07T21:49:25.780Z,13.10
2023-05-07T21:51:52.731Z,13.00
2023-05-07T21:54:19.793Z,13.00
2023-05-07T21:56:48.703Z,13.00
2023-05-07T21:59:17.103Z,12.90
2023-05-07T22:01:44.398Z,12.90
2023-05-07T22:04:11.459Z,12.80
2023-05-07T22:06:38.605Z,12.80
2023-05-07T22:09:06.218Z,12.80
2023-05-07T22:11:33.364Z,12.80
2023-05-07T22:14:00.765Z,12.60
2023-05-07T22:16:27.948Z,12.80
2023-05-07T22:18:55.221Z,12.60
2023-05-07T22:21:22.417Z,12.50
2023-05-07T22:23:49.410Z,12.50
2023-05-07T22:26:16.705Z,12.40
2023-05-07T22:28:44.127Z,12.40
2023-05-07T22:31:11.445Z,12.40
2023-05-07T22:33:38.528Z,12.30
2023-05-07T22:36:07.749Z,12.20
2023-05-07T22:38:34.630Z,12.20
2023-05-07T22:41:01.530Z,12.20
2023-05-07T22:43:28.737Z,12.10
2023-05-07T22:46:02.296Z,12.10
2023-05-07T22:48:29.843Z,12.00
2023-05-07T22:50:56.823Z,12.00
2023-05-07T22:53:24.063Z,11.90
2023-05-07T22:55:51.146Z,11.90
2023-05-07T22:58:18.085Z,11.90
2023-05-07T23:00:45.180Z,11.90
2023-05-07T23:03:12.927Z,11.80
2023-05-07T23:05:40.177Z,11.70
2023-05-07T23:08:07.040Z,11.70
2023-05-07T23:10:34.977Z,11.60
2023-05-07T23:13:02.253Z,11.60
2023-05-07T23:15:29.353Z,11.60
2023-05-07T23:17:56.409Z,11.50
2023-05-07T23:20:23.534Z,11.50
2023-05-07T23:22:50.558Z,11.50
2023-05-07T23:25:18.086Z,11.40
2023-05-07T23:27:45.174Z,11.40
2023-05-07T23:30:13.326Z,11.30
2023-05-07T23:32:40.974Z,11.30
2023-05-07T23:35:08.836Z,11.20
2023-05-07T23:37:36.228Z,11.20
2023-05-07T23:40:03.632Z,11.40
2023-05-07T23:42:30.694Z,11.10
2023-05-07T23:44:57.738Z,11.00
2023-05-07T23:47:24.768Z,11.00
2023-05-07T23:49:51.781Z,10.90
2023-05-07T23:52:18.913Z,10.90
2023-05-07T23:54:45.883Z,10.80
2023-05-07T23:57:14.163Z,10.80
2023-05-07T23:59:41.435Z,10.80
